createdAt,value
2019-05-12T00:02:09.218Z,99.90
2019-05-12T00:04:39.095Z,99.90
2019-05-12T00:07:09.009Z,99.90
2019-05-12T00:09:38.910Z,99.90
2019-05-12T00:12:08.846Z,99.90
2019-05-12T00:14:38.649Z,99.90
2019-05-12T00:17:08.507Z,99.90
2019-05-12T00:19:38.311Z,99.90
2019-05-12T00:22:08.108Z,99.90
2019-05-12T00:24:38.363Z,99.90
2019-05-12T00:27:11.186Z,99.90
2019-05-12T00:29:40.999Z,99.90
2019-05-12T00:32:10.815Z,99.90
2019-05-12T00:34:40.562Z,99.90
2019-05-12T00:37:10.376Z,99.90
2019-05-12T00:39:40.152Z,99.90
2019-05-12T00:42:09.990Z,99.90
2019-05-12T00:44:39.875Z,99.90
2019-05-12T00:47:09.669Z,99.90
2019-05-12T00:49:39.488Z,99.90
2019-05-12T00:52:09.399Z,99.90
2019-05-12T00:54:39.214Z,99.90
2019-05-12T00:57:09.039Z,99.90
2019-05-12T00:59:38.804Z,99.90
2019-05-12T01:02:08.644Z,99.90
2019-05-12T01:04:38.527Z,99.90
2019-05-12T01:07:08.719Z,99.90
2019-05-12T01:09:38.661Z,99.90
2019-05-12T01:12:08.628Z,99.90
2019-05-12T01:14:38.460Z,99.90
2019-05-12T01:17:08.481Z,99.90
2019-05-12T01:19:40.504Z,99.90
2019-05-12T01:22:10.019Z,99.90
2019-05-12T01:24:39.818Z,99.90
2019-05-12T01:27:09.662Z,99.90
2019-05-12T01:29:39.489Z,99.90
2019-05-12T01:32:20.518Z,99.90
2019-05-12T01:34:50.393Z,99.90
2019-05-12T01:37:27.982Z,99.90
2019-05-12T01:40:00.004Z,99.90
2019-05-12T01:42:29.199Z,99.90
2019-05-12T01:44:59.017Z,99.90
2019-05-12T01:47:29.232Z,99.90
2019-05-12T01:49:59.096Z,99.90
2019-05-12T01:52:28.905Z,99.90
2019-05-12T01:54:59.090Z,99.90
2019-05-12T01:57:29.096Z,99.90
2019-05-12T01:59:59.004Z,99.90
2019-05-12T02:02:28.867Z,99.90
2019-05-12T02:05:08.516Z,99.90
2019-05-12T02:07:50.043Z,99.90
2019-05-12T02:10:20.879Z,99.90
2019-05-12T02:12:50.655Z,99.90
2019-05-12T02:15:20.676Z,99.90
2019-05-12T02:17:50.540Z,99.90
2019-05-12T02:20:20.945Z,99.90
2019-05-12T02:22:50.810Z,99.90
2019-05-12T02:25:20.730Z,99.90
2019-05-12T02:27:50.603Z,99.90
2019-05-12T02:30:21.018Z,99.90
2019-05-12T02:32:57.512Z,99.90
2019-05-12T02:35:24.769Z,99.90
2019-05-12T02:37:55.073Z,99.90
2019-05-12T02:40:25.514Z,99.90
2019-05-12T02:42:55.548Z,99.90
2019-05-12T02:45:26.195Z,99.90
2019-05-12T02:47:55.977Z,99.90
2019-05-12T02:50:36.804Z,99.90
2019-05-12T02:53:07.621Z,99.90
2019-05-12T02:55:38.416Z,99.90
2019-05-12T02:58:08.796Z,99.90
2019-05-12T03:00:38.784Z,99.90
2019-05-12T03:03:14.434Z,99.90
2019-05-12T03:05:45.208Z,99.90
2019-05-12T03:08:15.680Z,99.90
2019-05-12T03:10:48.504Z,99.90
2019-05-12T03:13:18.343Z,99.90
2019-05-12T03:15:48.141Z,99.90
2019-05-12T03:18:17.947Z,99.90
2019-05-12T03:20:47.739Z,99.90
2019-05-12T03:23:19.249Z,99.90
2019-05-12T03:25:49.077Z,99.90
2019-05-12T03:28:19.033Z,99.90
2019-05-12T03:30:49.423Z,99.90
2019-05-12T03:33:20.444Z,99.90
2019-05-12T03:35:54.962Z,99.90
2019-05-12T03:38:25.042Z,99.90
2019-05-12T03:40:55.076Z,99.90
2019-05-12T03:43:25.009Z,99.90
2019-05-12T03:45:55.920Z,99.90
2019-05-12T03:48:25.982Z,99.90
2019-05-12T03:50:55.860Z,99.90
2019-05-12T03:53:25.672Z,99.90
2019-05-12T03:55:55.558Z,99.90
2019-05-12T03:58:25.761Z,99.90
2019-05-12T04:00:55.774Z,99.90
2019-05-12T04:03:25.641Z,99.90
2019-05-12T04:05:55.582Z,99.90
2019-05-12T04:08:28.020Z,99.90
2019-05-12T04:10:57.901Z,99.90
2019-05-12T04:13:27.630Z,99.90
2019-05-12T04:15:57.525Z,99.90
2019-05-12T04:18:27.305Z,99.90
2019-05-12T04:20:57.183Z,99.90
2019-05-12T04:23:26.962Z,99.90
2019-05-12T04:26:07.415Z,99.90
2019-05-12T04:28:28.223Z,99.90
2019-05-12T04:30:58.057Z,99.90
2019-05-12T04:33:27.813Z,99.90
2019-05-12T04:35:57.603Z,99.90
2019-05-12T04:38:27.379Z,99.90
2019-05-12T04:40:57.421Z,99.90
2019-05-12T04:43:27.225Z,99.90
2019-05-12T04:45:57.014Z,99.90
2019-05-12T04:48:26.877Z,99.90
2019-05-12T04:50:56.766Z,99.90
2019-05-12T04:53:26.612Z,99.90
2019-05-12T04:56:07.502Z,99.90
2019-05-12T04:58:28.288Z,99.90
2019-05-12T05:00:58.613Z,99.90
2019-05-12T05:03:28.421Z,99.90
2019-05-12T05:05:58.308Z,99.90
2019-05-12T05:08:28.077Z,99.90
2019-05-12T05:10:57.923Z,99.90
2019-05-12T05:13:27.701Z,99.90
2019-05-12T05:15:57.536Z,99.90
2019-05-12T05:18:27.367Z,99.90
2019-05-12T05:20:57.175Z,99.90
2019-05-12T05:23:26.991Z,99.90
2019-05-12T05:25:56.787Z,99.90
2019-05-12T05:28:26.606Z,99.90
2019-05-12T05:30:56.427Z,99.90
2019-05-12T05:33:26.279Z,99.90
2019-05-12T05:35:56.088Z,99.90
2019-05-12T05:38:25.922Z,99.90
2019-05-12T05:40:59.745Z,99.90
2019-05-12T05:43:27.210Z,99.90
2019-05-12T05:46:02.489Z,99.90
2019-05-12T05:48:31.699Z,99.90
2019-05-12T05:51:04.604Z,99.90
2019-05-12T05:53:33.423Z,99.90
2019-05-12T05:56:04.091Z,99.90
2019-05-12T05:58:34.088Z,99.90
2019-05-12T06:01:08.015Z,99.90
2019-05-12T06:03:35.359Z,99.90
2019-05-12T06:06:10.906Z,99.90
2019-05-12T06:08:36.756Z,99.90
2019-05-12T06:11:08.533Z,99.90
2019-05-12T06:13:40.101Z,99.90
2019-05-12T06:16:11.703Z,99.90
2019-05-12T06:18:43.738Z,99.90
2019-05-12T06:21:13.765Z,99.90
2019-05-12T06:23:43.776Z,99.90
2019-05-12T06:26:14.168Z,99.90
2019-05-12T06:28:44.190Z,99.90
2019-05-12T06:31:19.029Z,99.90
2019-05-12T06:33:47.714Z,99.90
2019-05-12T06:36:22.273Z,99.90
2019-05-12T06:38:54.185Z,99.90
2019-05-12T06:41:25.929Z,99.90
2019-05-12T06:43:55.445Z,99.90
2019-05-12T06:46:25.933Z,99.90
2019-05-12T06:49:00.851Z,99.90
2019-05-12T06:51:27.595Z,99.90
2019-05-12T06:54:00.953Z,99.90
2019-05-12T06:56:29.157Z,99.90
2019-05-12T06:59:01.037Z,99.90
2019-05-12T07:01:30.514Z,99.90
2019-05-12T07:04:05.108Z,99.90
2019-05-12T07:06:33.879Z,99.90
2019-05-12T07:09:09.828Z,99.90
2019-05-12T07:11:44.983Z,99.90
2019-05-12T07:14:18.890Z,99.90
2019-05-12T07:17:01.821Z,99.90
2019-05-12T07:19:25.672Z,99.90
2019-05-12T07:21:59.844Z,99.90
2019-05-12T07:24:27.199Z,99.90
2019-05-12T07:27:04.143Z,99.90
2019-05-12T07:29:29.150Z,99.90
2019-05-12T07:31:59.098Z,99.90
2019-05-12T07:34:28.894Z,99.90
2019-05-12T07:36:59.242Z,99.90
2019-05-12T07:39:30.586Z,99.90
2019-05-12T07:42:03.690Z,99.90
2019-05-12T07:44:39.950Z,99.90
2019-05-12T07:47:07.329Z,99.90
2019-05-12T07:49:38.741Z,99.90
2019-05-12T07:52:08.808Z,99.90
2019-05-12T07:54:39.600Z,99.90
2019-05-12T07:57:12.721Z,99.90
2019-05-12T07:59:41.225Z,99.90
2019-05-12T08:02:14.127Z,99.90
2019-05-12T08:04:44.021Z,99.90
2019-05-12T08:07:14.611Z,99.90
2019-05-12T08:09:44.759Z,99.90
2019-05-12T08:12:19.117Z,99.90
2019-05-12T08:14:46.520Z,99.90
2019-05-12T08:17:19.559Z,99.90
2019-05-12T08:19:47.992Z,99.90
2019-05-12T08:22:18.790Z,99.90
2019-05-12T08:24:49.566Z,99.90
2019-05-12T08:27:19.539Z,99.90
2019-05-12T08:29:54.487Z,99.90
2019-05-12T08:32:23.270Z,99.90
2019-05-12T08:34:54.079Z,96.80
2019-05-12T08:37:24.495Z,97.80
2019-05-12T08:40:03.293Z,99.90
2019-05-12T08:42:26.567Z,98.20
2019-05-12T08:44:56.755Z,94.10
2019-05-12T08:47:29.024Z,94.60
2019-05-12T08:49:58.970Z,94.30
2019-05-12T08:52:30.557Z,92.30
2019-05-12T08:55:00.546Z,90.00
2019-05-12T08:57:32.548Z,92.70
2019-05-12T09:00:03.301Z,90.70
2019-05-12T09:02:34.432Z,91.60
2019-05-12T09:05:04.805Z,90.90
2019-05-12T09:07:39.718Z,91.20
2019-05-12T09:10:08.046Z,90.40
2019-05-12T09:12:37.888Z,85.10
2019-05-12T09:15:08.639Z,84.70
2019-05-12T09:17:49.069Z,85.90
2019-05-12T09:20:09.999Z,89.00
2019-05-12T09:22:39.763Z,85.30
2019-05-12T09:25:09.860Z,90.30
2019-05-12T09:27:44.822Z,83.90
2019-05-12T09:30:11.589Z,74.80
2019-05-12T09:32:48.037Z,77.70
2019-05-12T09:35:14.403Z,74.90
2019-05-12T09:37:44.450Z,75.20
2019-05-12T09:40:15.018Z,75.90
2019-05-12T09:42:45.944Z,72.80
2019-05-12T09:45:15.904Z,75.40
2019-05-12T09:47:45.772Z,71.40
2019-05-12T09:50:20.092Z,71.90
2019-05-12T09:52:50.208Z,73.50
2019-05-12T09:55:22.008Z,72.00
2019-05-12T09:57:50.749Z,70.20
2019-05-12T10:00:30.494Z,71.60
2019-05-12T10:03:00.909Z,74.00
2019-05-12T10:05:41.361Z,75.80
2019-05-12T10:08:29.312Z,73.20
2019-05-12T10:11:16.523Z,74.30
2019-05-12T10:13:44.930Z,75.60
2019-05-12T10:16:25.372Z,72.30
2019-05-12T10:18:55.298Z,74.00
2019-05-12T10:21:26.907Z,74.80
2019-05-12T10:24:01.753Z,75.40
2019-05-12T10:26:41.202Z,76.60
2019-05-12T10:29:17.544Z,76.70
2019-05-12T10:31:44.745Z,73.90
2019-05-12T10:34:23.607Z,72.10
2019-05-12T10:36:54.047Z,72.20
2019-05-12T10:39:26.722Z,70.60
2019-05-12T10:41:57.204Z,71.30
2019-05-12T10:44:30.103Z,73.00
2019-05-12T10:47:01.433Z,72.40
2019-05-12T10:49:33.717Z,66.70
2019-05-12T10:52:04.025Z,63.90
2019-05-12T10:54:36.924Z,67.00
2019-05-12T10:57:06.922Z,67.70
2019-05-12T10:59:38.692Z,63.70
2019-05-12T11:02:08.749Z,65.20
2019-05-12T11:04:41.118Z,65.10
2019-05-12T11:07:10.162Z,64.50
2019-05-12T11:09:40.848Z,61.90
2019-05-12T11:12:18.913Z,64.10
2019-05-12T11:14:45.294Z,65.50
2019-05-12T11:17:16.579Z,62.90
2019-05-12T11:19:51.376Z,63.50
2019-05-12T11:22:19.848Z,63.20
2019-05-12T11:24:52.687Z,62.90
2019-05-12T11:27:24.037Z,61.90
2019-05-12T11:29:56.794Z,61.90
2019-05-12T11:32:28.808Z,61.50
2019-05-12T11:34:59.502Z,62.50
2019-05-12T11:37:30.062Z,60.70
2019-05-12T11:40:00.038Z,58.90
2019-05-12T11:42:46.832Z,62.20
2019-05-12T11:45:14.892Z,56.90
2019-05-12T11:47:45.986Z,59.00
2019-05-12T11:50:17.031Z,59.60
2019-05-12T11:52:50.988Z,57.70
2019-05-12T11:55:26.166Z,58.70
2019-05-12T11:57:54.491Z,57.60
2019-05-12T12:00:35.312Z,56.10
2019-05-12T12:03:18.233Z,56.50
2019-05-12T12:05:47.690Z,57.60
2019-05-12T12:08:17.946Z,57.20
2019-05-12T12:10:49.428Z,58.60
2019-05-12T12:13:27.710Z,58.00
2019-05-12T12:15:54.113Z,57.80
2019-05-12T12:18:24.667Z,56.90
2019-05-12T12:21:02.909Z,57.60
2019-05-12T12:23:26.390Z,57.10
2019-05-12T12:26:03.854Z,57.90
2019-05-12T12:28:34.437Z,57.50
2019-05-12T12:31:07.795Z,55.40
2019-05-12T12:33:40.655Z,57.60
2019-05-12T12:36:09.662Z,55.30
2019-05-12T12:38:39.654Z,54.90
2019-05-12T12:41:10.276Z,54.60
2019-05-12T12:43:43.304Z,53.50
2019-05-12T12:46:21.506Z,53.80
2019-05-12T12:48:54.097Z,54.00
2019-05-12T12:51:24.624Z,50.80
2019-05-12T12:53:54.644Z,53.00
2019-05-12T12:56:29.823Z,50.80
2019-05-12T12:59:01.873Z,51.20
2019-05-12T13:01:32.577Z,51.60
2019-05-12T13:04:04.666Z,52.60
2019-05-12T13:06:59.052Z,51.40
2019-05-12T13:09:28.134Z,48.80
2019-05-12T13:12:15.596Z,47.80
2019-05-12T13:14:40.038Z,48.60
2019-05-12T13:17:09.856Z,47.30
2019-05-12T13:19:40.924Z,47.80
2019-05-12T13:22:17.726Z,47.90
2019-05-12T13:24:45.635Z,46.00
2019-05-12T13:27:36.846Z,46.20
2019-05-12T13:30:06.060Z,46.20
2019-05-12T13:32:37.894Z,47.40
2019-05-12T13:35:14.704Z,47.70
2019-05-12T13:37:43.124Z,46.00
2019-05-12T13:40:13.097Z,44.40
2019-05-12T13:42:44.188Z,45.70
2019-05-12T13:45:16.426Z,44.40
2019-05-12T13:47:48.152Z,44.00
2019-05-12T13:50:21.485Z,44.80
2019-05-12T13:52:49.840Z,45.50
2019-05-12T13:55:39.351Z,45.10
2019-05-12T13:58:19.829Z,45.10
2019-05-12T14:01:09.265Z,44.30
2019-05-12T14:03:21.618Z,45.80
2019-05-12T14:05:53.065Z,45.40
2019-05-12T14:08:23.874Z,43.80
2019-05-12T14:10:59.399Z,43.10
2019-05-12T14:13:27.801Z,41.50
2019-05-12T14:15:57.719Z,41.70
2019-05-12T14:18:57.163Z,43.10
2019-05-12T14:21:26.058Z,43.50
2019-05-12T14:23:56.381Z,42.60
2019-05-12T14:26:26.813Z,41.00
2019-05-12T14:28:56.931Z,41.00
2019-05-12T14:31:30.626Z,40.60
2019-05-12T14:33:59.617Z,41.00
2019-05-12T14:36:32.043Z,41.00
2019-05-12T14:39:06.244Z,41.00
2019-05-12T14:41:34.542Z,40.00
2019-05-12T14:44:06.709Z,38.70
2019-05-12T14:46:50.668Z,38.70
2019-05-12T14:49:25.700Z,38.30
2019-05-12T14:51:53.709Z,40.30
2019-05-12T14:54:24.027Z,41.00
2019-05-12T14:56:57.717Z,40.20
2019-05-12T15:00:03.830Z,39.00
2019-05-12T15:02:33.233Z,39.10
2019-05-12T15:05:06.574Z,39.00
2019-05-12T15:07:42.678Z,38.60
2019-05-12T15:10:18.929Z,37.30
2019-05-12T15:12:51.052Z,37.80
2019-05-12T15:15:24.114Z,36.70
2019-05-12T15:18:10.111Z,38.00
2019-05-12T15:20:41.341Z,38.20
2019-05-12T15:23:14.110Z,38.40
2019-05-12T15:25:43.592Z,38.50
2019-05-12T15:28:14.676Z,38.90
2019-05-12T15:30:44.967Z,40.50
2019-05-12T15:33:14.815Z,38.60
2019-05-12T15:35:45.826Z,38.90
2019-05-12T15:38:16.917Z,36.50
2019-05-12T15:40:47.867Z,37.50
2019-05-12T15:43:18.433Z,35.40
2019-05-12T15:45:55.332Z,35.40
2019-05-12T15:48:25.602Z,35.60
2019-05-12T15:50:54.020Z,36.10
2019-05-12T15:53:26.880Z,37.10
2019-05-12T15:55:56.249Z,36.80
2019-05-12T15:58:26.407Z,36.00
2019-05-12T16:00:58.044Z,35.70
2019-05-12T16:03:28.858Z,36.70
2019-05-12T16:06:01.369Z,35.80
2019-05-12T16:08:31.184Z,35.50
2019-05-12T16:11:01.679Z,36.50
2019-05-12T16:13:46.959Z,35.70
2019-05-12T16:16:14.418Z,36.10
2019-05-12T16:18:56.339Z,38.90
2019-05-12T16:21:26.316Z,37.60
2019-05-12T16:23:56.886Z,36.80
2019-05-12T16:26:28.493Z,36.80
2019-05-12T16:29:03.141Z,37.80
2019-05-12T16:31:33.958Z,37.80
2019-05-12T16:34:06.171Z,37.20
2019-05-12T16:36:36.320Z,37.00
2019-05-12T16:39:09.897Z,38.10
2019-05-12T16:41:40.673Z,37.40
2019-05-12T16:44:17.416Z,37.90
2019-05-12T16:46:45.464Z,38.20
2019-05-12T16:49:16.098Z,38.00
2019-05-12T16:51:47.588Z,38.60
2019-05-12T16:54:18.543Z,38.70
2019-05-12T16:57:00.151Z,38.60
2019-05-12T16:59:30.445Z,38.50
2019-05-12T17:02:05.582Z,39.90
2019-05-12T17:04:33.360Z,39.30
2019-05-12T17:07:04.099Z,40.50
2019-05-12T17:09:34.090Z,40.50
2019-05-12T17:12:14.581Z,40.70
2019-05-12T17:14:49.907Z,41.00
2019-05-12T17:17:24.630Z,41.20
2019-05-12T17:19:55.388Z,41.90
2019-05-12T17:22:54.637Z,42.30
2019-05-12T17:25:19.499Z,42.30
2019-05-12T17:27:49.483Z,42.80
2019-05-12T17:30:23.758Z,42.90
2019-05-12T17:33:00.698Z,43.30
2019-05-12T17:35:26.993Z,43.10
2019-05-12T17:37:56.421Z,43.70
2019-05-12T17:40:26.412Z,43.80
2019-05-12T17:43:05.565Z,44.00
2019-05-12T17:45:29.071Z,44.60
2019-05-12T17:48:02.658Z,45.60
2019-05-12T17:50:34.420Z,44.90
2019-05-12T17:53:04.637Z,44.50
2019-05-12T17:55:34.726Z,44.60
2019-05-12T17:58:06.399Z,44.50
2019-05-12T18:00:41.273Z,45.20
2019-05-12T18:03:18.130Z,45.30
2019-05-12T18:05:42.414Z,44.70
2019-05-12T18:08:14.214Z,45.70
2019-05-12T18:10:47.837Z,46.10
2019-05-12T18:13:23.037Z,46.80
2019-05-12T18:15:48.519Z,46.90
2019-05-12T18:18:24.152Z,46.70
2019-05-12T18:20:52.868Z,46.00
2019-05-12T18:23:26.242Z,47.00
2019-05-12T18:25:55.910Z,47.00
2019-05-12T18:28:27.574Z,47.70
2019-05-12T18:30:57.829Z,47.90
2019-05-12T18:33:36.708Z,48.10
2019-05-12T18:36:04.720Z,49.10
2019-05-12T18:38:35.242Z,49.20
2019-05-12T18:41:05.404Z,49.10
2019-05-12T18:43:35.222Z,49.60
2019-05-12T18:46:08.893Z,49.90
2019-05-12T18:48:36.750Z,50.10
2019-05-12T18:51:11.806Z,50.70
2019-05-12T18:53:37.932Z,51.10
2019-05-12T18:56:10.423Z,51.20
2019-05-12T18:58:39.633Z,51.50
2019-05-12T19:01:09.497Z,51.80
2019-05-12T19:03:49.800Z,52.00
2019-05-12T19:06:14.124Z,52.30
2019-05-12T19:08:44.052Z,52.60
2019-05-12T19:11:22.598Z,53.00
2019-05-12T19:13:51.639Z,53.30
2019-05-12T19:16:17.164Z,53.50
2019-05-12T19:18:47.980Z,53.70
2019-05-12T19:21:20.130Z,53.90
2019-05-12T19:23:49.413Z,54.40
2019-05-12T19:26:19.289Z,54.60
2019-05-12T19:28:53.143Z,54.90
2019-05-12T19:31:21.020Z,55.30
2019-05-12T19:34:10.315Z,55.70
2019-05-12T19:36:24.040Z,55.80
2019-05-12T19:38:54.502Z,56.40
2019-05-12T19:41:24.655Z,56.80
2019-05-12T19:43:54.733Z,57.40
2019-05-12T19:46:24.553Z,57.80
2019-05-12T19:48:55.049Z,58.20
2019-05-12T19:51:28.299Z,58.70
2019-05-12T19:53:58.543Z,60.30
2019-05-12T19:56:34.517Z,61.20
2019-05-12T19:59:01.316Z,62.60
2019-05-12T20:01:34.381Z,64.10
2019-05-12T20:04:03.981Z,64.70
2019-05-12T20:06:33.799Z,65.50
2019-05-12T20:09:10.038Z,67.40
2019-05-12T20:11:36.669Z,69.00
2019-05-12T20:14:14.899Z,70.20
2019-05-12T20:16:40.414Z,72.00
2019-05-12T20:19:10.234Z,73.20
2019-05-12T20:21:40.071Z,73.00
2019-05-12T20:24:09.879Z,74.00
2019-05-12T20:26:40.243Z,73.20
2019-05-12T20:29:13.807Z,73.70
2019-05-12T20:31:48.416Z,74.30
2019-05-12T20:34:17.904Z,74.20
2019-05-12T20:36:49.462Z,74.80
2019-05-12T20:39:21.708Z,75.80
2019-05-12T20:41:54.763Z,77.10
2019-05-12T20:44:23.787Z,77.80
2019-05-12T20:47:01.510Z,80.20
2019-05-12T20:49:28.864Z,83.00
2019-05-12T20:52:03.757Z,86.70
2019-05-12T20:54:33.539Z,89.60
2019-05-12T20:57:07.819Z,91.00
2019-05-12T20:59:35.376Z,92.40
2019-05-12T21:02:05.587Z,93.20
2019-05-12T21:04:37.973Z,93.80
2019-05-12T21:07:07.401Z,94.60
2019-05-12T21:09:37.284Z,95.60
2019-05-12T21:12:07.200Z,96.70
2019-05-12T21:14:37.141Z,97.90
2019-05-12T21:17:09.559Z,99.90
2019-05-12T21:19:40.146Z,99.90
2019-05-12T21:22:09.961Z,99.90
2019-05-12T21:24:40.125Z,99.90
2019-05-12T21:27:18.298Z,99.90
2019-05-12T21:29:43.643Z,99.90
2019-05-12T21:32:16.693Z,99.90
2019-05-12T21:34:45.006Z,99.90
2019-05-12T21:37:14.895Z,99.90
2019-05-12T21:39:46.853Z,99.90
2019-05-12T21:42:18.941Z,99.90
2019-05-12T21:44:49.166Z,99.90
2019-05-12T21:47:19.570Z,99.20
2019-05-12T21:49:52.821Z,98.70
2019-05-12T21:52:23.705Z,97.90
2019-05-12T21:54:55.480Z,97.20
2019-05-12T21:57:30.840Z,96.30
2019-05-12T21:59:56.436Z,95.80
2019-05-12T22:02:30.794Z,96.00
2019-05-12T22:05:04.239Z,95.40
2019-05-12T22:07:39.739Z,95.30
2019-05-12T22:10:06.944Z,95.30
2019-05-12T22:12:37.673Z,95.80
2019-05-12T22:15:11.324Z,96.10
2019-05-12T22:17:58.732Z,96.60
2019-05-12T22:20:32.375Z,98.60
2019-05-12T22:23:11.700Z,99.90
2019-05-12T22:25:36.825Z,99.90
2019-05-12T22:28:10.048Z,99.90
2019-05-12T22:30:43.759Z,99.90
2019-05-12T22:33:17.236Z,99.90
2019-05-12T22:36:00.722Z,99.90
2019-05-12T22:38:20.975Z,99.90
2019-05-12T22:40:56.195Z,99.90
2019-05-12T22:43:25.015Z,99.90
2019-05-12T22:45:54.963Z,99.90
2019-05-12T22:48:29.879Z,99.90
2019-05-12T22:50:57.690Z,99.90
2019-05-12T22:53:29.993Z,99.90
2019-05-12T22:56:02.993Z,99.90
2019-05-12T22:58:33.620Z,99.90
2019-05-12T23:01:05.090Z,99.90
2019-05-12T23:03:34.531Z,99.90
2019-05-12T23:06:20.405Z,99.90
2019-05-12T23:08:38.711Z,99.90
2019-05-12T23:11:07.333Z,99.90
2019-05-12T23:13:40.949Z,99.90
2019-05-12T23:16:08.696Z,99.90
2019-05-12T23:18:38.614Z,99.90
2019-05-12T23:21:13.684Z,99.90
2019-05-12T23:23:40.011Z,99.90
2019-05-12T23:26:09.801Z,99.90
2019-05-12T23:28:40.380Z,99.90
2019-05-12T23:31:13.258Z,99.90
2019-05-12T23:33:44.109Z,99.90
2019-05-12T23:36:15.723Z,99.90
2019-05-12T23:38:45.560Z,99.90
2019-05-12T23:41:15.366Z,99.90
2019-05-12T23:43:45.234Z,99.90
2019-05-12T23:46:15.042Z,99.90
2019-05-12T23:48:44.888Z,99.90
2019-05-12T23:51:14.666Z,99.90
2019-05-12T23:53:44.460Z,99.90
2019-05-12T23:56:14.344Z,99.90
2019-05-12T23:58:44.179Z,99.90
